Time;durP1;ratioP1;P1;durP2;ratioP2;P2;SDS_P1;SDS_P2;PMS_P1;PMS_P2;Temp;Humidity;BMP_temperature;BMP_pressure;BME280_temperature;BME280_humidity;BME280_pressure;Samples;Min_cycle;Max_cycle;Signal;HPM_P1;HPM_P2
2023/11/01 00:01:13;;;;;;;;;;;;;;;22.12;53.11;100233.72;7398880;19;1833;-42
2023/11/01 00:03:42;;;;;;;;;;;;;;;22.11;52.86;100205.13;7399128;19;1753;-42
2023/11/01 00:06:10;;;;;;;;;;;;;;;22.07;53.11;100188.47;7399157;19;1764;-42
2023/11/01 00:08:41;;;;;;;;;;;;;;;22.09;52.87;100209.84;7400709;19;1010;-42
2023/11/01 00:11:10;;;;;;;;;;;;;;;22.14;52.74;100211.00;7399480;19;1980;-43
2023/11/01 00:13:38;;;;;;;;;;;;;;;22.15;52.85;100219.94;7397785;19;1912;-43
2023/11/01 00:16:07;;;;;;;;;;;;;;;22.17;52.71;100221.44;7400493;19;1694;-43
2023/11/01 00:18:35;;;;;;;;;;;;;;;22.13;52.95;100233.56;7400360;19;966;-42
2023/11/01 00:21:03;;;;;;;;;;;;;;;22.20;52.79;100229.19;7399440;19;1666;-43
2023/11/01 00:23:32;;;;;;;;;;;;;;;22.19;52.58;100230.19;7399129;19;1581;-42
2023/11/01 00:26:02;;;;;;;;;;;;;;;22.17;52.74;100210.69;7396844;19;1585;-43
2023/11/01 00:28:32;;;;;;;;;;;;;;;22.18;52.70;100206.13;7397999;19;1413;-42
2023/11/01 00:31:00;;;;;;;;;;;;;;;22.18;52.78;100207.00;7397488;19;1697;-42
2023/11/01 00:33:28;;;;;;;;;;;;;;;22.20;52.92;100202.28;7397297;19;1838;-42
2023/11/01 00:35:57;;;;;;;;;;;;;;;22.20;52.80;100225.66;7396662;19;1845;-43
2023/11/01 00:38:25;;;;;;;;;;;;;;;22.18;52.94;100239.31;7397195;19;1709;-43
2023/11/01 00:40:53;;;;;;;;;;;;;;;22.19;52.75;100229.38;7397080;19;1039;-43
2023/11/01 00:43:24;;;;;;;;;;;;;;;22.23;52.62;100220.75;7396348;19;1810;-42
2023/11/01 00:45:53;;;;;;;;;;;;;;;22.21;53.02;100232.72;7397141;19;1765;-42
2023/11/01 00:48:22;;;;;;;;;;;;;;;22.23;52.62;100242.31;7394503;19;1863;-42
2023/11/01 00:50:50;;;;;;;;;;;;;;;22.21;52.71;100238.13;7395630;19;1738;-42
2023/11/01 00:53:18;;;;;;;;;;;;;;;22.21;52.84;100238.94;7397182;19;1840;-43
2023/11/01 00:55:47;;;;;;;;;;;;;;;22.18;52.86;100249.22;7396161;19;2042;-42
2023/11/01 00:58:15;;;;;;;;;;;;;;;22.18;52.72;100233.91;7396578;19;1855;-42
2023/11/01 01:00:46;;;;;;;;;;;;;;;22.20;52.82;100236.41;7398076;19;1419;-42
2023/11/01 01:03:15;;;;;;;;;;;;;;;22.20;52.92;100231.91;7398427;19;1048;-42
2023/11/01 01:05:44;;;;;;;;;;;;;;;22.19;52.92;100250.91;7398195;19;1765;-42
2023/11/01 01:08:12;;;;;;;;;;;;;;;22.22;52.95;100264.88;7397637;19;1550;-42
2023/11/01 01:10:41;;;;;;;;;;;;;;;22.22;52.68;100283.75;7396261;19;1429;-42
2023/11/01 01:13:09;;;;;;;;;;;;;;;22.24;52.86;100292.53;7394853;19;1847;-42
2023/11/01 01:15:38;;;;;;;;;;;;;;;22.23;52.75;100300.72;7394425;19;1855;-42
2023/11/01 01:18:09;;;;;;;;;;;;;;;22.24;52.53;100297.91;7396234;19;1824;-43
2023/11/01 01:20:37;;;;;;;;;;;;;;;22.21;52.84;100295.50;7395680;19;1831;-42
2023/11/01 01:23:05;;;;;;;;;;;;;;;22.16;52.92;100297.88;7396638;19;1765;-42
2023/11/01 01:25:33;;;;;;;;;;;;;;;22.21;52.79;100319.75;7396574;19;1801;-42
2023/11/01 01:28:02;;;;;;;;;;;;;;;22.19;52.89;100315.53;7397368;19;1106;-42
2023/11/01 01:30:30;;;;;;;;;;;;;;;22.19;52.91;100315.53;7395307;19;1790;-42
2023/11/01 01:32:58;;;;;;;;;;;;;;;22.20;52.97;100318.06;7395977;19;1785;-42
2023/11/01 01:35:29;;;;;;;;;;;;;;;22.20;52.80;100306.44;7393647;19;1906;-42
2023/11/01 01:37:57;;;;;;;;;;;;;;;22.20;52.80;100310.00;7395818;19;1946;-42
2023/11/01 01:40:26;;;;;;;;;;;;;;;22.16;52.80;100311.34;7396411;19;1745;-42
2023/11/01 01:42:55;;;;;;;;;;;;;;;22.18;52.80;100300.38;7394814;19;1714;-43
2023/11/01 01:45:23;;;;;;;;;;;;;;;22.16;53.00;100313.16;7395448;19;1812;-42
2023/11/01 01:47:52;;;;;;;;;;;;;;;22.12;52.84;100318.03;7395581;19;1662;-42
2023/11/01 01:50:21;;;;;;;;;;;;;;;22.21;52.85;100335.06;7395545;19;1763;-42
2023/11/01 01:52:52;;;;;;;;;;;;;;;22.21;52.71;100341.28;7396303;19;2035;-43
2023/11/01 01:55:20;;;;;;;;;;;;;;;22.19;52.72;100346.00;7393607;19;1944;-42
2023/11/01 01:57:49;;;;;;;;;;;;;;;22.18;52.81;100341.66;7395482;19;1679;-42
2023/11/01 02:00:18;;;;;;;;;;;;;;;22.13;52.80;100349.38;7395419;19;1859;-42
2023/11/01 02:02:47;;;;;;;;;;;;;;;22.22;53.04;100355.59;7394851;19;1894;-43
2023/11/01 02:05:16;;;;;;;;;;;;;;;22.26;52.87;100353.44;7394078;19;1605;-42
2023/11/01 02:07:44;;;;;;;;;;;;;;;22.21;52.82;100368.22;7393349;19;1433;-42
2023/11/01 02:10:15;;;;;;;;;;;;;;;22.20;52.73;100366.56;7394329;19;1866;-42
2023/11/01 02:12:44;;;;;;;;;;;;;;;22.16;52.82;100386.75;7394509;19;1747;-42
2023/11/01 02:15:12;;;;;;;;;;;;;;;22.19;52.89;100410.63;7393626;19;1838;-42
2023/11/01 02:17:41;;;;;;;;;;;;;;;22.14;53.09;100412.97;7394857;19;1808;-42
2023/11/01 02:20:12;;;;;;;;;;;;;;;22.16;52.73;100419.06;7393783;19;1882;-42
2023/11/01 02:22:42;;;;;;;;;;;;;;;22.18;52.87;100424.25;7394680;19;1720;-42
2023/11/01 02:25:13;;;;;;;;;;;;;;;22.17;52.78;100428.81;7395903;19;1445;-42
2023/11/01 02:27:41;;;;;;;;;;;;;;;22.15;52.78;100428.13;7395050;19;1773;-42
2023/11/01 02:30:16;;;;;;;;;;;;;;;22.16;52.85;100424.47;7394547;19;1796;-42
2023/11/01 02:32:47;;;;;;;;;;;;;;;22.13;53.02;100435.53;7394546;19;1682;-43
2023/11/01 02:35:16;;;;;;;;;;;;;;;22.13;52.87;100418.56;7392344;19;1839;-42
2023/11/01 02:37:44;;;;;;;;;;;;;;;22.11;52.90;100425.94;7394541;19;1770;-42
2023/11/01 02:40:16;;;;;;;;;;;;;;;22.10;53.06;100425.09;7395504;19;1572;-42
2023/11/01 02:42:44;;;;;;;;;;;;;;;22.12;53.01;100443.78;7391460;19;1828;-42
2023/11/01 02:45:13;;;;;;;;;;;;;;;22.13;53.10;100429.31;7394357;19;1736;-42
2023/11/01 02:47:41;;;;;;;;;;;;;;;22.10;52.86;100435.03;7393737;19;1823;-42
2023/11/01 02:50:11;;;;;;;;;;;;;;;22.11;53.09;100426.78;7392950;19;1561;-43
2023/11/01 02:52:40;;;;;;;;;;;;;;;22.15;52.81;100427.31;7394641;19;1250;-43
2023/11/01 02:55:10;;;;;;;;;;;;;;;22.12;53.10;100412.28;7391448;19;1845;-42
2023/11/01 02:57:42;;;;;;;;;;;;;;;22.12;53.01;100423.06;7393083;19;1522;-43
2023/11/01 03:00:18;;;;;;;;;;;;;;;22.12;53.02;100423.06;7393126;19;1920;-43
2023/11/01 03:02:46;;;;;;;;;;;;;;;22.06;53.15;100429.13;7392241;19;1368;-43
2023/11/01 03:05:14;;;;;;;;;;;;;;;22.08;53.15;100427.09;7392524;19;1421;-43
2023/11/01 03:07:43;;;;;;;;;;;;;;;22.05;53.26;100424.75;7392921;19;1519;-43
2023/11/01 03:10:12;;;;;;;;;;;;;;;22.03;53.16;100421.38;7393014;19;1558;-43
2023/11/01 03:12:43;;;;;;;;;;;;;;;22.02;53.17;100430.44;7391985;19;1551;-43
2023/11/01 03:15:13;;;;;;;;;;;;;;;22.08;53.28;100437.88;7390935;19;1862;-43
2023/11/01 03:17:42;;;;;;;;;;;;;;;22.06;53.10;100429.13;7391583;19;1398;-43
2023/11/01 03:20:11;;;;;;;;;;;;;;;22.06;53.01;100421.03;7398763;19;1418;-43
2023/11/01 03:22:39;;;;;;;;;;;;;;;22.06;53.10;100437.19;7401413;19;1690;-43
2023/11/01 03:25:08;;;;;;;;;;;;;;;22.04;53.21;100417.66;7400113;19;1828;-43
2023/11/01 03:27:37;;;;;;;;;;;;;;;22.00;53.07;100413.63;7399785;19;1928;-43
2023/11/01 03:30:08;;;;;;;;;;;;;;;22.01;53.13;100418.00;7397906;19;2605;-43
2023/11/01 03:32:37;;;;;;;;;;;;;;;22.03;53.36;100419.53;7400006;19;1714;-43
2023/11/01 03:35:05;;;;;;;;;;;;;;;22.05;53.13;100411.28;7399366;19;1852;-44
2023/11/01 03:37:34;;;;;;;;;;;;;;;22.04;53.22;100425.75;7400297;19;1730;-43
2023/11/01 03:40:02;;;;;;;;;;;;;;;22.03;53.25;100406.06;7399716;19;1483;-43
2023/11/01 03:42:31;;;;;;;;;;;;;;;21.97;53.41;100408.56;7397943;19;1742;-43
2023/11/01 03:44:59;;;;;;;;;;;;;;;21.96;53.37;100413.09;7397594;19;1480;-43
2023/11/01 03:47:30;;;;;;;;;;;;;;;21.94;53.66;100406.19;7398584;19;1571;-43
2023/11/01 03:50:00;;;;;;;;;;;;;;;22.01;53.47;100423.41;7397474;19;1531;-43
2023/11/01 03:52:28;;;;;;;;;;;;;;;21.93;53.37;100401.84;7396335;19;1047;-43
2023/11/01 03:54:56;;;;;;;;;;;;;;;21.99;53.37;100401.19;7398390;19;1841;-43
2023/11/01 03:57:25;;;;;;;;;;;;;;;21.96;53.22;100385.34;7399280;19;1751;-43
2023/11/01 03:59:54;;;;;;;;;;;;;;;21.94;53.35;100377.41;7398350;19;1845;-43
2023/11/01 04:02:22;;;;;;;;;;;;;;;21.99;53.47;100360.78;7398071;19;1431;-43
2023/11/01 04:04:53;;;;;;;;;;;;;;;21.95;53.58;100351.34;7397562;19;1482;-43
2023/11/01 04:07:22;;;;;;;;;;;;;;;21.94;53.51;100369.34;7398716;19;1460;-43
2023/11/01 04:09:50;;;;;;;;;;;;;;;21.96;53.61;100374.56;7397774;19;1493;-43
2023/11/01 04:12:18;;;;;;;;;;;;;;;21.94;53.28;100365.81;7397973;19;1895;-44
2023/11/01 04:14:47;;;;;;;;;;;;;;;21.98;53.28;100373.38;7397131;19;1855;-44
2023/11/01 04:17:15;;;;;;;;;;;;;;;21.99;53.47;100449.63;7398691;19;1269;-43
2023/11/01 04:19:43;;;;;;;;;;;;;;;21.97;53.60;100440.88;7398926;19;1832;-43
2023/11/01 04:22:14;;;;;;;;;;;;;;;21.97;53.20;100443.56;7398084;19;1446;-43
2023/11/01 04:24:42;;;;;;;;;;;;;;;21.97;53.61;100441.72;7396808;19;1507;-43
2023/11/01 04:27:11;;;;;;;;;;;;;;;21.96;53.36;100463.41;7398053;19;1717;-44
2023/11/01 04:29:39;;;;;;;;;;;;;;;21.95;53.58;100469.81;7398371;19;1420;-43
2023/11/01 04:32:08;;;;;;;;;;;;;;;21.93;53.50;100456.50;7396312;19;1528;-44
2023/11/01 04:34:36;;;;;;;;;;;;;;;21.93;53.53;100464.59;7399133;19;1857;-43
2023/11/01 04:37:04;;;;;;;;;;;;;;;21.91;53.61;100449.63;7397684;19;1936;-43
2023/11/01 04:39:36;;;;;;;;;;;;;;;21.89;53.64;100455.16;7396838;19;1724;-43
2023/11/01 04:42:04;;;;;;;;;;;;;;;21.90;53.74;100458.69;7396267;19;1498;-43
2023/11/01 04:44:33;;;;;;;;;;;;;;;21.92;53.37;100443.22;7394669;19;1761;-43
2023/11/01 04:47:01;;;;;;;;;;;;;;;21.91;53.59;100453.13;7398705;19;1829;-43
2023/11/01 04:49:29;;;;;;;;;;;;;;;21.85;53.61;100448.41;7397791;19;1383;-43
2023/11/01 04:51:58;;;;;;;;;;;;;;;21.90;53.73;100442.53;7397206;19;1912;-43
2023/11/01 04:54:26;;;;;;;;;;;;;;;21.96;53.37;100460.72;7397182;19;1842;-43
2023/11/01 04:56:57;;;;;;;;;;;;;;;21.89;53.49;100465.09;7395990;19;1747;-43
2023/11/01 04:59:25;;;;;;;;;;;;;;;21.90;53.48;100461.38;7397992;19;1733;-43
2023/11/01 05:01:54;;;;;;;;;;;;;;;21.92;53.48;100457.50;7397479;19;1730;-43
2023/11/01 05:04:22;;;;;;;;;;;;;;;21.97;53.08;100468.63;7396145;19;1753;-43
2023/11/01 05:06:50;;;;;;;;;;;;;;;21.79;52.62;100487.56;7396061;19;1810;-43
2023/11/01 05:09:19;;;;;;;;;;;;;;;21.67;53.26;100493.41;7397160;19;1734;-43
2023/11/01 05:11:48;;;;;;;;;;;;;;;21.62;53.18;100494.69;7397656;19;1820;-44
2023/11/01 05:14:20;;;;;;;;;;;;;;;21.66;52.98;100495.22;7397626;19;1383;-43
2023/11/01 05:16:49;;;;;;;;;;;;;;;21.63;53.09;100495.56;7395284;19;1853;-43
2023/11/01 05:19:19;;;;;;;;;;;;;;;21.69;53.01;100511.06;7395452;19;1440;-43
2023/11/01 05:21:47;;;;;;;;;;;;;;;21.69;53.21;100523.69;7395933;19;1523;-43
2023/11/01 05:24:16;;;;;;;;;;;;;;;21.73;53.43;100543.91;7395651;19;1563;-43
2023/11/01 05:26:44;;;;;;;;;;;;;;;21.69;53.19;100524.53;7395828;19;1819;-43
2023/11/01 05:29:14;;;;;;;;;;;;;;;21.76;53.26;100539.03;7395512;19;1401;-43
2023/11/01 05:31:45;;;;;;;;;;;;;;;21.76;53.06;100541.72;7395606;19;1468;-43
2023/11/01 05:34:13;;;;;;;;;;;;;;;21.75;53.30;100541.91;7395865;19;1421;-43
2023/11/01 05:36:42;;;;;;;;;;;;;;;21.74;52.98;100556.34;7394763;19;1889;-43
2023/11/01 05:39:10;;;;;;;;;;;;;;;21.76;53.28;100557.03;7395410;19;1448;-43
2023/11/01 05:41:39;;;;;;;;;;;;;;;21.78;53.18;100555.84;7394501;19;1726;-43
2023/11/01 05:44:07;;;;;;;;;;;;;;;21.76;53.02;100547.09;7394873;19;1749;-43
2023/11/01 05:46:35;;;;;;;;;;;;;;;21.76;53.03;100546.25;7396001;19;1919;-43
2023/11/01 05:49:08;;;;;;;;;;;;;;;21.78;53.22;100539.72;7395822;19;1742;-43
2023/11/01 05:51:36;;;;;;;;;;;;;;;21.77;52.96;100534.50;7396097;19;1820;-43
2023/11/01 05:54:05;;;;;;;;;;;;;;;21.71;53.37;100533.28;7395727;19;1726;-43
2023/11/01 05:56:33;;;;;;;;;;;;;;;21.72;53.38;100537.66;7393752;19;1842;-43
2023/11/01 05:59:01;;;;;;;;;;;;;;;21.72;53.09;100553.81;7395146;19;2021;-43
2023/11/01 06:01:30;;;;;;;;;;;;;;;21.72;53.17;100547.59;7394818;19;1710;-43
2023/11/01 06:04:00;;;;;;;;;;;;;;;21.73;53.33;100562.75;7396518;19;1745;-43
2023/11/01 06:06:31;;;;;;;;;;;;;;;21.69;53.20;100564.91;7395293;19;1690;-43
2023/11/01 06:08:59;;;;;;;;;;;;;;;21.72;53.26;100561.88;7395157;19;1943;-43
2023/11/01 06:11:28;;;;;;;;;;;;;;;21.73;53.37;100581.59;7395663;19;1735;-43
2023/11/01 06:13:56;;;;;;;;;;;;;;;21.71;53.19;100565.59;7394285;19;1773;-43
2023/11/01 06:16:25;;;;;;;;;;;;;;;21.75;53.27;100590.34;7394985;19;1871;-43
2023/11/01 06:18:53;;;;;;;;;;;;;;;21.73;53.38;100577.03;7395190;19;1827;-44
2023/11/01 06:21:23;;;;;;;;;;;;;;;21.73;53.21;100579.72;7394710;19;1726;-43
2023/11/01 06:23:54;;;;;;;;;;;;;;;21.77;52.96;100570.34;7394156;19;1812;-43
2023/11/01 06:26:22;;;;;;;;;;;;;;;21.76;53.23;100574.00;7393962;19;1927;-43
2023/11/01 06:28:50;;;;;;;;;;;;;;;21.85;52.96;100578.47;7393743;19;1538;-43
2023/11/01 06:31:20;;;;;;;;;;;;;;;22.00;52.93;100580.56;7394056;19;1390;-44
2023/11/01 06:33:48;;;;;;;;;;;;;;;22.12;52.62;100573.88;7394115;19;1443;-43
2023/11/01 06:36:17;;;;;;;;;;;;;;;22.26;52.31;100577.00;7392592;19;1847;-43
2023/11/01 06:38:46;;;;;;;;;;;;;;;22.33;52.12;100583.44;7392410;19;1417;-43
2023/11/01 06:41:17;;;;;;;;;;;;;;;22.40;52.07;100587.16;7394165;19;1017;-43
2023/11/01 06:43:46;;;;;;;;;;;;;;;22.37;52.13;100592.91;7394044;19;1915;-43
2023/11/01 06:46:14;;;;;;;;;;;;;;;22.40;51.84;100595.25;7393677;19;1810;-43
2023/11/01 06:48:43;;;;;;;;;;;;;;;22.33;52.10;100596.91;7394567;19;1776;-43
2023/11/01 06:51:14;;;;;;;;;;;;;;;22.30;52.18;100591.84;7393311;19;1589;-43
2023/11/01 06:53:42;;;;;;;;;;;;;;;22.29;52.38;100604.47;7394466;19;1427;-43
2023/11/01 06:56:11;;;;;;;;;;;;;;;22.33;52.17;100599.63;7399477;19;1872;-43
2023/11/01 06:58:43;;;;;;;;;;;;;;;22.44;51.86;100600.19;7402951;19;2010;-43
2023/11/01 07:01:11;;;;;;;;;;;;;;;22.46;52.13;100602.69;7402177;19;1663;-43
2023/11/01 07:03:39;;;;;;;;;;;;;;;22.32;52.28;100595.22;7400583;19;1887;-43
2023/11/01 07:06:08;;;;;;;;;;;;;;;22.36;52.12;100602.84;7399578;19;1789;-43
2023/11/01 07:08:36;;;;;;;;;;;;;;;22.42;52.04;100590.53;7402122;19;1749;-43
2023/11/01 07:11:05;;;;;;;;;;;;;;;22.37;52.18;100603.69;7401754;19;1712;-43
2023/11/01 07:13:33;;;;;;;;;;;;;;;22.42;51.91;100598.63;7400486;19;1785;-43
2023/11/01 07:16:04;;;;;;;;;;;;;;;22.34;52.23;100601.28;7398516;19;1860;-43
2023/11/01 07:18:32;;;;;;;;;;;;;;;22.05;52.90;100605.16;7399177;19;1666;-43
2023/11/01 07:21:00;;;;;;;;;;;;;;;21.91;53.63;100593.13;7399899;19;1792;-43
2023/11/01 07:23:29;;;;;;;;;;;;;;;21.91;53.45;100605.75;7399245;19;1456;-43
2023/11/01 07:25:57;;;;;;;;;;;;;;;21.85;53.50;100591.91;7400463;19;1407;-43
2023/11/01 07:28:25;;;;;;;;;;;;;;;21.86;53.49;100595.44;7400544;19;1574;-43
2023/11/01 07:30:54;;;;;;;;;;;;;;;21.85;53.54;100597.31;7399759;19;1848;-43
2023/11/01 07:33:25;;;;;;;;;;;;;;;21.89;53.44;100588.91;7398057;19;1353;-44
2023/11/01 07:35:53;;;;;;;;;;;;;;;21.84;53.48;100597.44;7397711;19;1947;-49
2023/11/01 07:38:22;;;;;;;;;;;;;;;21.87;53.56;100601.69;7399783;19;1840;-43
2023/11/01 07:40:50;;;;;;;;;;;;;;;21.87;53.39;100617.84;7397702;19;1538;-42
2023/11/01 07:43:16;;;;;;;;;;;;;;;21.88;53.77;100622.22;7399902;19;1729;-43
2023/11/01 07:45:44;;;;;;;;;;;;;;;21.91;53.61;100619.22;7398802;19;1744;-43
2023/11/01 07:48:12;;;;;;;;;;;;;;;21.88;53.74;100619.53;7400239;19;1995;-43
2023/11/01 07:50:43;;;;;;;;;;;;;;;21.92;53.59;100610.97;7401329;19;1791;-43
2023/11/01 07:53:12;;;;;;;;;;;;;;;21.94;53.63;100624.28;7399931;19;1301;-43
2023/11/01 07:55:40;;;;;;;;;;;;;;;21.97;53.41;100632.03;7400010;19;1850;-44
2023/11/01 07:58:09;;;;;;;;;;;;;;;21.98;53.27;100620.25;7399098;19;1766;-43
2023/11/01 08:00:38;;;;;;;;;;;;;;;22.00;53.60;100623.63;7400328;19;1758;-43
2023/11/01 08:03:06;;;;;;;;;;;;;;;21.98;53.48;100612.19;7401015;19;1789;-43
2023/11/01 08:05:34;;;;;;;;;;;;;;;22.01;53.33;100630.72;7398008;19;1784;-44
2023/11/01 08:08:05;;;;;;;;;;;;;;;22.01;53.40;100631.56;7398480;19;1799;-44
2023/11/01 08:10:34;;;;;;;;;;;;;;;22.05;53.30;100634.78;7398913;19;1494;-43
2023/11/01 08:13:02;;;;;;;;;;;;;;;22.07;53.19;100642.72;7398768;19;2475;-43
2023/11/01 08:15:33;;;;;;;;;;;;;;;22.06;53.48;100633.75;7398654;19;1841;-44
2023/11/01 08:18:02;;;;;;;;;;;;;;;22.11;53.13;100631.44;7398719;19;1424;-44
2023/11/01 08:20:30;;;;;;;;;;;;;;;22.10;53.26;100629.75;7400001;19;1728;-44
2023/11/01 08:22:58;;;;;;;;;;;;;;;22.16;53.29;100648.00;7399086;19;1897;-44
2023/11/01 08:25:29;;;;;;;;;;;;;;;22.15;53.33;100648.97;7399630;19;1702;-43
2023/11/01 08:27:58;;;;;;;;;;;;;;;22.18;53.14;100650.50;7398953;19;1833;-43
2023/11/01 08:30:26;;;;;;;;;;;;;;;22.17;53.21;100624.59;7398689;19;1816;-44
2023/11/01 08:32:55;;;;;;;;;;;;;;;22.20;52.99;100643.97;7398779;19;1717;-43
2023/11/01 08:35:23;;;;;;;;;;;;;;;22.21;53.12;100645.66;7399337;19;1754;-44
2023/11/01 08:37:51;;;;;;;;;;;;;;;22.22;53.10;100647.34;7396156;19;1853;-43
2023/11/01 08:40:20;;;;;;;;;;;;;;;22.23;53.21;100646.34;7398331;19;1821;-43
2023/11/01 08:42:51;;;;;;;;;;;;;;;22.24;53.04;100641.81;7397297;19;1698;-43
2023/11/01 08:45:19;;;;;;;;;;;;;;;22.17;53.00;100640.75;7399364;19;1729;-44
2023/11/01 08:47:48;;;;;;;;;;;;;;;22.20;53.11;100645.81;7397956;19;1429;-43
2023/11/01 08:50:16;;;;;;;;;;;;;;;22.22;53.21;100655.44;7397201;19;1618;-55
2023/11/01 08:52:45;;;;;;;;;;;;;;;22.27;53.01;100652.28;7397990;19;1652;-43
2023/11/01 08:55:14;;;;;;;;;;;;;;;22.25;53.20;100654.28;7398127;19;1737;-43
2023/11/01 08:57:44;;;;;;;;;;;;;;;22.25;53.16;100654.28;7394930;19;1856;-43
2023/11/01 09:00:15;;;;;;;;;;;;;;;22.26;52.99;100649.75;7395978;19;1825;-43
2023/11/01 09:02:44;;;;;;;;;;;;;;;22.31;53.04;100656.34;7396443;19;1841;-44
2023/11/01 09:05:13;;;;;;;;;;;;;;;22.38;52.99;100659.22;7398371;19;1702;-43
2023/11/01 09:07:42;;;;;;;;;;;;;;;22.32;52.85;100643.72;7398402;19;1828;-43
2023/11/01 09:10:10;;;;;;;;;;;;;;;22.34;52.80;100636.31;7398387;19;1807;-43
2023/11/01 09:12:39;;;;;;;;;;;;;;;22.38;52.61;100652.00;7395245;19;1845;-43
2023/11/01 09:15:08;;;;;;;;;;;;;;;22.42;52.57;100644.44;7397402;19;1737;-43
2023/11/01 09:17:39;;;;;;;;;;;;;;;22.48;52.38;100659.94;7393049;19;1945;-43
2023/11/01 09:20:08;;;;;;;;;;;;;;;22.54;52.50;100647.69;7397247;19;1712;-43
2023/11/01 09:22:37;;;;;;;;;;;;;;;22.55;52.32;100639.44;7397644;19;1971;-43
2023/11/01 09:25:06;;;;;;;;;;;;;;;22.61;52.27;100633.41;7397497;19;1686;-43
2023/11/01 09:27:34;;;;;;;;;;;;;;;22.71;51.85;100637.81;7396561;19;1511;-43
2023/11/01 09:30:04;;;;;;;;;;;;;;;22.71;52.09;100640.53;7396977;19;1742;-43
2023/11/01 09:32:32;;;;;;;;;;;;;;;22.60;52.05;100637.13;7396556;19;1670;-43
2023/11/01 09:35:03;;;;;;;;;;;;;;;22.54;52.52;100636.91;7397449;19;1608;-43
2023/11/01 09:37:34;;;;;;;;;;;;;;;22.43;52.61;100648.81;7395261;19;1906;-43
2023/11/01 09:40:03;;;;;;;;;;;;;;;22.40;52.82;100641.91;7395905;19;1444;-43
2023/11/01 09:42:31;;;;;;;;;;;;;;;22.36;52.72;100632.47;7394102;19;1729;-43
2023/11/01 09:45:00;;;;;;;;;;;;;;;22.41;52.76;100642.75;7397316;19;1432;-43
2023/11/01 09:47:29;;;;;;;;;;;;;;;22.30;53.04;100634.94;7395807;19;1631;-43
2023/11/01 09:49:57;;;;;;;;;;;;;;;22.28;52.88;100639.66;7396090;19;1773;-43
2023/11/01 09:52:30;;;;;;;;;;;;;;;22.29;53.01;100619.81;7396409;19;1804;-43
2023/11/01 09:55:00;;;;;;;;;;;;;;;22.40;52.79;100625.75;7395646;19;1893;-44
2023/11/01 09:57:30;;;;;;;;;;;;;;;22.47;52.52;100633.19;7393865;19;1841;-43
2023/11/01 09:59:59;;;;;;;;;;;;;;;22.52;52.36;100622.75;7395565;19;1714;-43
2023/11/01 10:02:27;;;;;;;;;;;;;;;22.53;52.17;100625.28;7395466;19;1512;-43
2023/11/01 10:04:56;;;;;;;;;;;;;;;22.54;52.21;100621.59;7395241;19;1427;-43
2023/11/01 10:07:24;;;;;;;;;;;;;;;22.58;52.00;100628.34;7394575;19;1667;-43
2023/11/01 10:09:55;;;;;;;;;;;;;;;22.59;52.12;100624.63;7395507;19;1328;-43
2023/11/01 10:12:23;;;;;;;;;;;;;;;22.61;52.21;100608.31;7394236;19;1776;-43
2023/11/01 10:14:52;;;;;;;;;;;;;;;22.60;52.00;100615.56;7396231;19;1758;-43
2023/11/01 10:17:20;;;;;;;;;;;;;;;22.62;52.20;100616.25;7394173;19;1849;-44
2023/11/01 10:19:48;;;;;;;;;;;;;;;22.60;52.25;100614.69;7395123;19;1695;-43
2023/11/01 10:22:16;;;;;;;;;;;;;;;22.60;52.18;100620.09;7395172;19;1585;-43
2023/11/01 10:24:45;;;;;;;;;;;;;;;22.62;52.15;100621.63;7395159;19;1640;-43
2023/11/01 10:27:16;;;;;;;;;;;;;;;22.60;52.06;100630.88;7395177;19;1662;-43
2023/11/01 10:29:47;;;;;;;;;;;;;;;22.56;52.13;100606.13;7392997;19;1438;-44
2023/11/01 10:32:15;;;;;;;;;;;;;;;22.59;52.11;100619.25;7394641;19;1423;-43
2023/11/01 10:34:43;;;;;;;;;;;;;;;22.63;52.23;100609.81;7394753;19;1969;-44
2023/11/01 10:37:12;;;;;;;;;;;;;;;22.61;52.21;100621.78;7394001;19;1841;-43
2023/11/01 10:39:40;;;;;;;;;;;;;;;22.63;52.07;100620.59;7393526;19;1927;-43
2023/11/01 10:42:11;;;;;;;;;;;;;;;22.60;52.04;100614.69;7393909;19;1686;-44
2023/11/01 10:44:42;;;;;;;;;;;;;;;22.54;52.32;100607.25;7394949;19;1730;-43
2023/11/01 10:47:11;;;;;;;;;;;;;;;22.54;52.20;100626.13;7394774;19;1705;-43
2023/11/01 10:49:39;;;;;;;;;;;;;;;22.50;52.54;100617.53;7392929;19;1831;-43
2023/11/01 10:52:09;;;;;;;;;;;;;;;22.47;52.52;100619.72;7395427;19;1670;-43
2023/11/01 10:54:37;;;;;;;;;;;;;;;22.42;52.54;100610.28;7393596;19;1841;-43
2023/11/01 10:57:06;;;;;;;;;;;;;;;22.45;52.71;100614.47;7393426;19;1849;-43
2023/11/01 10:59:39;;;;;;;;;;;;;;;22.41;52.68;100605.03;7393853;19;1816;-43
2023/11/01 11:02:16;;;;;;;;;;;;;;;22.44;52.72;100643.28;7394148;19;1725;-43
2023/11/01 11:04:48;;;;;;;;;;;;;;;22.42;52.77;100622.88;7393880;19;1721;-43
2023/11/01 11:07:29;;;;;;;;;;;;;;;22.37;52.55;100619.84;7394104;19;1399;-43
2023/11/01 11:10:12;;;;;;;;;;;;;;;22.38;52.63;100606.22;7391483;19;1646;-43
2023/11/01 11:12:41;;;;;;;;;;;;;;;22.43;52.75;100620.03;7393734;19;1674;-43
2023/11/01 11:15:09;;;;;;;;;;;;;;;22.37;52.81;100622.53;7392978;19;1746;-43
2023/11/01 11:18:00;;;;;;;;;;;;;;;22.40;52.96;100620.38;7391867;19;1860;-43
2023/11/01 11:20:32;;;;;;;;;;;;;;;22.34;52.94;100599.47;7393261;19;1805;-43
2023/11/01 11:23:14;;;;;;;;;;;;;;;22.32;52.75;100606.00;7394087;19;1733;-43
2023/11/01 11:25:53;;;;;;;;;;;;;;;22.32;53.03;100609.56;7393824;19;1674;-44
2023/11/01 11:28:37;;;;;;;;;;;;;;;22.32;53.05;100619.47;7393396;19;1741;-43
2023/11/01 11:31:06;;;;;;;;;;;;;;;22.28;52.90;100628.88;7392932;19;1718;-43
2023/11/01 11:33:38;;;;;;;;;;;;;;;22.20;53.12;100611.66;7392770;19;1718;-43
2023/11/01 11:36:07;;;;;;;;;;;;;;;22.27;52.95;100601.09;7392493;19;1793;-43
2023/11/01 11:38:36;;;;;;;;;;;;;;;21.80;53.18;100532.31;7389345;19;1868;-43
2023/11/01 11:41:14;;;;;;;;;;;;;;;22.30;52.78;100613.41;7398062;19;974;-43
2023/11/01 11:43:57;;;;;;;;;;;;;;;22.35;52.92;100616.47;7400168;19;1849;-43
2023/11/01 11:46:35;;;;;;;;;;;;;;;22.37;52.71;100609.06;7400013;19;1824;-43
2023/11/01 11:49:07;;;;;;;;;;;;;;;22.37;52.83;100609.06;7399687;19;1741;-43
2023/11/01 11:51:39;;;;;;;;;;;;;;;22.39;52.83;100612.44;7399727;19;1687;-43
2023/11/01 11:54:14;;;;;;;;;;;;;;;22.36;52.81;100613.63;7400085;19;1623;-43
2023/11/01 11:56:43;;;;;;;;;;;;;;;22.35;52.69;100621.84;7399066;19;1832;-43
2023/11/01 11:59:12;;;;;;;;;;;;;;;22.36;52.86;100607.34;7398501;19;1827;-43
2023/11/01 12:01:40;;;;;;;;;;;;;;;22.31;52.85;100618.63;7399583;19;1844;-43
2023/11/01 12:04:11;;;;;;;;;;;;;;;22.29;52.83;100607.16;7398281;19;1445;-43
2023/11/01 12:06:44;;;;;;;;;;;;;;;22.27;52.93;100625.34;7399440;19;1443;-43
2023/11/01 12:09:17;;;;;;;;;;;;;;;22.23;52.87;100618.56;7399634;19;1738;-43
2023/11/01 12:11:46;;;;;;;;;;;;;;;22.28;52.90;100626.19;7400026;19;1821;-43
2023/11/01 12:14:18;;;;;;;;;;;;;;;22.25;53.06;100621.97;7399629;19;1876;-43
2023/11/01 12:16:47;;;;;;;;;;;;;;;22.26;52.99;100636.28;7399360;19;1919;-43
2023/11/01 12:19:22;;;;;;;;;;;;;;;22.23;52.85;100629.34;7398332;19;1926;-43
2023/11/01 12:21:52;;;;;;;;;;;;;;;22.27;52.75;100629.91;7398936;19;1782;-44
2023/11/01 12:24:21;;;;;;;;;;;;;;;22.24;52.84;100625.66;7398787;19;1939;-43
2023/11/01 12:26:57;;;;;;;;;;;;;;;22.23;52.97;100638.25;7398203;19;1789;-43
2023/11/01 12:29:25;;;;;;;;;;;;;;;22.23;52.97;100640.94;7398605;19;1775;-43
2023/11/01 12:32:06;;;;;;;;;;;;;;;22.20;52.79;100638.59;7398065;19;1843;-43
2023/11/01 12:34:38;;;;;;;;;;;;;;;22.19;53.03;100650.34;7399681;19;1741;-43
2023/11/01 12:37:10;;;;;;;;;;;;;;;22.17;53.07;100630.81;7397368;19;1858;-43
2023/11/01 12:39:39;;;;;;;;;;;;;;;22.17;52.79;100629.97;7397887;19;1768;-43
2023/11/01 12:42:22;;;;;;;;;;;;;;;22.15;52.95;100638.22;7397984;19;1794;-43
2023/11/01 12:44:52;;;;;;;;;;;;;;;22.19;52.92;100626.09;7398727;19;1733;-43
2023/11/01 12:47:20;;;;;;;;;;;;;;;22.19;52.94;100634.19;7397959;19;1686;-43
2023/11/01 13:08:48;;;;;;;;;;;;;;;22.16;52.54;100645.31;6749448;19;10002354;-38
2023/11/01 13:11:19;;;;;;;;;;;;;;;22.15;52.81;100627.44;7424150;19;1493;-38
2023/11/01 13:13:47;;;;;;;;;;;;;;;22.16;52.72;100645.31;7424157;19;1495;-38
2023/11/01 13:16:15;;;;;;;;;;;;;;;22.13;52.80;100639.38;7425748;19;1853;-38
2023/11/01 13:18:44;;;;;;;;;;;;;;;22.12;53.01;100643.06;7423689;19;1932;-38